createdAt,value
2018-02-23T00:00:05.436Z,9.30
2018-02-23T00:01:05.319Z,8.80
2018-02-23T00:02:05.209Z,8.10
2018-02-23T00:03:05.101Z,8.60
2018-02-23T00:04:04.987Z,8.90
2018-02-23T00:05:04.886Z,8.30
2018-02-23T00:06:04.786Z,9.20
2018-02-23T00:07:04.669Z,9.00
2018-02-23T00:08:04.816Z,8.90
2018-02-23T00:09:04.458Z,8.50
2018-02-23T00:10:04.346Z,8.90
2018-02-23T00:11:04.236Z,8.80
2018-02-23T00:12:04.122Z,9.10
2018-02-23T00:13:04.031Z,9.20
2018-02-23T00:14:03.923Z,8.10
2018-02-23T00:15:03.810Z,9.20
2018-02-23T00:16:03.701Z,8.70
2018-02-23T00:17:03.598Z,9.10
2018-02-23T00:18:03.489Z,8.50
2018-02-23T00:19:03.391Z,8.90
2018-02-23T00:20:03.268Z,9.30
2018-02-23T00:21:03.166Z,9.40
2018-02-23T00:22:03.057Z,9.70
2018-02-23T00:23:02.947Z,9.30
2018-02-23T00:24:02.842Z,9.80
2018-02-23T00:25:02.726Z,9.50
2018-02-23T00:26:02.625Z,9.70
2018-02-23T00:27:02.517Z,9.20
2018-02-23T00:28:02.401Z,9.80
2018-02-23T00:29:02.301Z,9.60
2018-02-23T00:30:02.192Z,9.90
2018-02-23T00:31:02.075Z,9.70
2018-02-23T00:32:01.971Z,9.80
2018-02-23T00:33:01.853Z,9.30
2018-02-23T00:34:01.748Z,9.30
2018-02-23T00:35:01.652Z,8.60
2018-02-23T00:36:01.539Z,9.00
2018-02-23T00:37:01.425Z,8.80
2018-02-23T00:38:01.338Z,9.10
2018-02-23T00:39:01.214Z,8.70
2018-02-23T00:40:01.111Z,9.00
2018-02-23T00:41:00.993Z,9.20
2018-02-23T00:42:00.883Z,9.00
2018-02-23T00:43:01.032Z,9.40
2018-02-23T00:44:00.673Z,8.70
2018-02-23T00:45:00.611Z,9.20
2018-02-23T00:46:00.451Z,8.60
2018-02-23T00:47:00.345Z,9.20
2018-02-23T00:48:00.247Z,9.10
2018-02-23T00:49:00.135Z,9.30
2018-02-23T00:50:00.024Z,9.60
2018-02-23T00:50:59.910Z,9.40
2018-02-23T00:51:59.807Z,9.30
2018-02-23T00:52:59.694Z,9.80
2018-02-23T00:53:59.585Z,9.40
2018-02-23T00:54:59.477Z,9.60
2018-02-23T00:55:59.382Z,9.30
2018-02-23T00:56:59.263Z,10.00
2018-02-23T00:57:59.152Z,9.10
2018-02-23T00:58:59.046Z,10.30
2018-02-23T00:59:58.931Z,9.70
2018-02-23T01:00:58.822Z,10.00
2018-02-23T01:01:58.722Z,10.40
2018-02-23T01:02:58.614Z,10.00
2018-02-23T01:03:58.498Z,10.00
2018-02-23T01:04:58.390Z,9.30
2018-02-23T01:05:58.287Z,10.80
2018-02-23T01:06:58.174Z,10.10
2018-02-23T01:07:58.064Z,10.40
2018-02-23T01:08:57.959Z,10.40
2018-02-23T01:09:57.852Z,9.90
2018-02-23T01:10:57.740Z,11.10
2018-02-23T01:11:57.623Z,11.30
2018-02-23T01:12:57.829Z,10.20
2018-02-23T01:13:57.403Z,11.00
2018-02-23T01:14:57.316Z,11.20
2018-02-23T01:15:57.199Z,11.50
2018-02-23T01:16:57.088Z,11.80
2018-02-23T01:17:56.984Z,11.70
2018-02-23T01:18:56.869Z,11.80
2018-02-23T01:19:56.764Z,11.40
2018-02-23T01:20:56.655Z,11.90
2018-02-23T01:21:56.541Z,11.30
2018-02-23T01:22:56.437Z,12.00
2018-02-23T01:23:56.326Z,11.90
2018-02-23T01:24:56.219Z,11.90
2018-02-23T01:25:56.105Z,10.70
2018-02-23T01:26:55.997Z,12.10
2018-02-23T01:27:55.889Z,10.80
2018-02-23T01:28:55.788Z,11.80
2018-02-23T01:29:55.665Z,11.70
2018-02-23T01:30:55.566Z,11.10
2018-02-23T01:31:55.461Z,11.60
2018-02-23T01:32:55.349Z,11.10
2018-02-23T01:33:55.240Z,11.60
2018-02-23T01:34:55.121Z,11.90
2018-02-23T01:35:55.017Z,11.70
2018-02-23T01:36:54.905Z,12.00
2018-02-23T01:37:55.099Z,12.00
2018-02-23T01:38:54.688Z,12.20
2018-02-23T01:39:54.584Z,12.40
2018-02-23T01:40:54.468Z,11.30
2018-02-23T01:41:54.372Z,12.30
2018-02-23T01:42:54.260Z,12.70
2018-02-23T01:43:54.149Z,12.80
2018-02-23T01:44:54.043Z,12.60
2018-02-23T01:45:53.923Z,13.00
2018-02-23T01:46:53.831Z,12.60
2018-02-23T01:47:53.712Z,12.50
2018-02-23T01:48:53.601Z,13.20
2018-02-23T01:49:53.489Z,12.80
2018-02-23T01:50:53.380Z,13.30
2018-02-23T01:51:53.283Z,13.00
2018-02-23T01:52:53.164Z,13.40
2018-02-23T01:53:53.066Z,12.80
2018-02-23T01:54:52.945Z,12.50
2018-02-23T01:55:52.852Z,12.30
2018-02-23T01:56:52.729Z,12.90
2018-02-23T01:57:52.930Z,12.30
2018-02-23T01:58:52.511Z,13.00
2018-02-23T01:59:52.404Z,12.30
2018-02-23T02:00:52.291Z,12.40
2018-02-23T02:01:52.181Z,12.20
2018-02-23T02:02:52.071Z,12.80
2018-02-23T02:03:51.966Z,11.70
2018-02-23T02:04:51.864Z,10.70
2018-02-23T02:05:51.759Z,12.00
2018-02-23T02:06:51.648Z,12.20
2018-02-23T02:07:51.776Z,12.20
2018-02-23T02:08:51.433Z,11.20
2018-02-23T02:09:51.312Z,12.60
2018-02-23T02:10:51.208Z,12.00
2018-02-23T02:11:51.092Z,12.00
2018-02-23T02:12:50.983Z,11.90
2018-02-23T02:13:50.871Z,11.80
2018-02-23T02:14:50.764Z,11.80
2018-02-23T02:15:50.653Z,12.30
2018-02-23T02:16:50.549Z,11.80
2018-02-23T02:17:50.438Z,10.70
2018-02-23T02:18:50.335Z,11.10
2018-02-23T02:19:50.215Z,12.10
2018-02-23T02:20:50.112Z,11.20
2018-02-23T02:21:50.003Z,11.20
2018-02-23T02:22:50.186Z,10.20
2018-02-23T02:23:49.784Z,11.00
2018-02-23T02:24:49.680Z,11.10
2018-02-23T02:25:49.563Z,11.70
2018-02-23T02:26:49.453Z,11.40
2018-02-23T02:27:49.349Z,11.20
2018-02-23T02:28:49.230Z,11.40
2018-02-23T02:29:49.139Z,11.00
2018-02-23T02:30:49.012Z,11.90
2018-02-23T02:31:48.915Z,11.70
2018-02-23T02:32:48.802Z,10.80
2018-02-23T02:33:48.689Z,11.20
2018-02-23T02:34:48.577Z,10.60
2018-02-23T02:35:48.474Z,10.50
2018-02-23T02:36:48.353Z,11.50
2018-02-23T02:37:48.262Z,10.50
2018-02-23T02:38:48.139Z,11.00
2018-02-23T02:39:48.033Z,11.80
2018-02-23T02:40:47.920Z,11.90
2018-02-23T02:41:47.818Z,11.70
2018-02-23T02:42:47.697Z,12.40
2018-02-23T02:43:47.596Z,12.80
2018-02-23T02:44:47.502Z,13.30
2018-02-23T02:45:47.373Z,11.90
2018-02-23T02:46:47.262Z,12.80
2018-02-23T02:47:47.157Z,13.50
2018-02-23T02:48:47.045Z,11.70
2018-02-23T02:49:46.940Z,12.90
2018-02-23T02:50:46.822Z,13.10
2018-02-23T02:51:46.726Z,13.00
2018-02-23T02:52:46.913Z,12.60
2018-02-23T02:53:46.506Z,13.30
2018-02-23T02:54:46.391Z,13.40
2018-02-23T02:55:46.285Z,13.40
2018-02-23T02:56:46.174Z,14.10
2018-02-23T02:57:46.063Z,11.90
2018-02-23T02:58:45.946Z,12.80
2018-02-23T02:59:45.848Z,13.70
2018-02-23T03:00:45.728Z,13.00
2018-02-23T03:01:45.621Z,12.50
2018-02-23T03:02:45.812Z,13.00
2018-02-23T03:03:45.411Z,13.30
2018-02-23T03:04:45.287Z,12.40
2018-02-23T03:05:45.188Z,12.80
2018-02-23T03:06:45.078Z,13.30
2018-02-23T03:07:44.971Z,12.50
2018-02-23T03:08:44.858Z,13.50
2018-02-23T03:09:44.744Z,12.50
2018-02-23T03:10:44.633Z,13.00
2018-02-23T03:11:44.535Z,13.80
2018-02-23T03:12:44.410Z,12.00
2018-02-23T03:13:44.319Z,14.40
2018-02-23T03:14:44.191Z,13.60
2018-02-23T03:15:44.088Z,13.80
2018-02-23T03:16:43.976Z,14.00
2018-02-23T03:17:43.866Z,14.10
2018-02-23T03:18:43.755Z,14.00
2018-02-23T03:19:43.657Z,13.90
2018-02-23T03:20:43.539Z,12.60
2018-02-23T03:21:43.433Z,14.70
2018-02-23T03:22:43.318Z,14.60
2018-02-23T03:23:43.212Z,14.70
2018-02-23T03:24:43.098Z,13.40
2018-02-23T03:25:42.997Z,14.90
2018-02-23T03:26:42.878Z,15.00
2018-02-23T03:27:42.781Z,14.80
2018-02-23T03:28:42.655Z,14.70
2018-02-23T03:29:42.557Z,14.50
2018-02-23T03:30:42.445Z,15.00
2018-02-23T03:31:42.336Z,15.50
2018-02-23T03:32:42.221Z,15.10
2018-02-23T03:33:42.123Z,15.90
2018-02-23T03:34:42.008Z,15.10
2018-02-23T03:35:41.907Z,15.60
2018-02-23T03:36:41.784Z,13.90
2018-02-23T03:37:41.679Z,15.30
2018-02-23T03:38:41.560Z,14.20
2018-02-23T03:39:41.443Z,15.00
2018-02-23T03:40:41.343Z,15.80
2018-02-23T03:41:41.226Z,15.90
2018-02-23T03:42:41.126Z,15.10
2018-02-23T03:43:41.012Z,15.50
2018-02-23T03:44:40.922Z,16.40
2018-02-23T03:45:40.790Z,15.40
2018-02-23T03:46:40.691Z,15.80
2018-02-23T03:47:40.566Z,15.30
2018-02-23T03:48:40.480Z,15.40
2018-02-23T03:49:40.350Z,15.20
2018-02-23T03:50:40.250Z,14.00
2018-02-23T03:51:40.146Z,14.70
2018-02-23T03:52:40.031Z,14.60
2018-02-23T03:53:39.914Z,14.40
2018-02-23T03:54:39.801Z,14.80
2018-02-23T03:55:39.690Z,13.80
2018-02-23T03:56:39.630Z,14.80
2018-02-23T03:57:39.476Z,16.40
2018-02-23T03:58:39.378Z,15.50
2018-02-23T03:59:39.258Z,16.00
2018-02-23T04:00:39.139Z,14.60
2018-02-23T04:01:39.046Z,14.90
2018-02-23T04:02:38.920Z,15.80
2018-02-23T04:03:38.823Z,15.30
2018-02-23T04:04:38.704Z,15.10
2018-02-23T04:05:38.601Z,15.50
2018-02-23T04:06:38.482Z,15.60
2018-02-23T04:07:38.368Z,15.90
2018-02-23T04:08:38.260Z,15.30
2018-02-23T04:09:38.149Z,15.50
2018-02-23T04:10:38.048Z,15.30
2018-02-23T04:11:37.927Z,15.00
2018-02-23T04:12:37.831Z,15.00
2018-02-23T04:13:37.704Z,14.20
2018-02-23T04:14:37.607Z,14.60
2018-02-23T04:15:37.491Z,15.40
2018-02-23T04:16:37.396Z,15.20
2018-02-23T04:17:37.279Z,15.60
2018-02-23T04:18:37.151Z,15.30
2018-02-23T04:19:37.049Z,14.10
2018-02-23T04:20:36.936Z,15.10
2018-02-23T04:21:36.831Z,14.00
2018-02-23T04:22:37.026Z,14.00
2018-02-23T04:23:36.620Z,16.00
2018-02-23T04:24:36.496Z,15.00
2018-02-23T04:25:36.393Z,15.20
2018-02-23T04:26:36.275Z,14.20
2018-02-23T04:27:36.176Z,14.60
2018-02-23T04:28:36.061Z,15.10
2018-02-23T04:29:35.954Z,15.60
2018-02-23T04:30:35.843Z,16.60
2018-02-23T04:31:35.727Z,15.60
2018-02-23T04:32:35.624Z,15.00
2018-02-23T04:33:35.511Z,15.30
2018-02-23T04:34:35.400Z,15.40
2018-02-23T04:35:35.287Z,16.10
2018-02-23T04:36:35.186Z,14.90
2018-02-23T04:37:35.064Z,15.90
2018-02-23T04:38:34.966Z,16.50
2018-02-23T04:39:34.848Z,14.90
2018-02-23T04:40:34.798Z,16.40
2018-02-23T04:41:34.635Z,16.30
2018-02-23T04:42:34.511Z,17.10
2018-02-23T04:43:34.412Z,15.90
2018-02-23T04:44:34.296Z,16.90
2018-02-23T04:45:34.186Z,16.70
2018-02-23T04:46:34.087Z,17.40
2018-02-23T04:47:33.982Z,17.10
2018-02-23T04:48:33.852Z,16.80
2018-02-23T04:49:33.748Z,17.50
2018-02-23T04:50:33.638Z,17.20
2018-02-23T04:51:33.554Z,17.50
2018-02-23T04:52:33.420Z,17.70
2018-02-23T04:53:33.304Z,17.50
2018-02-23T04:54:33.203Z,19.00
2018-02-23T04:55:33.081Z,17.30
2018-02-23T04:56:32.981Z,16.90
2018-02-23T04:57:33.118Z,18.10
2018-02-23T04:58:32.760Z,17.80
2018-02-23T04:59:32.652Z,18.20
2018-02-23T05:00:32.536Z,17.80
2018-02-23T05:01:32.431Z,17.30
2018-02-23T05:02:32.319Z,17.60
2018-02-23T05:03:32.203Z,18.20
2018-02-23T05:04:32.101Z,18.10
2018-02-23T05:05:31.985Z,17.70
2018-02-23T05:06:31.879Z,18.00
2018-02-23T05:07:31.779Z,18.00
2018-02-23T05:08:31.650Z,18.20
2018-02-23T05:09:31.549Z,19.00
2018-02-23T05:10:31.436Z,17.90
2018-02-23T05:11:31.324Z,17.70
2018-02-23T05:12:31.218Z,19.00
2018-02-23T05:13:31.112Z,17.90
2018-02-23T05:14:30.996Z,18.90
2018-02-23T05:15:30.881Z,17.60
2018-02-23T05:16:30.775Z,18.70
2018-02-23T05:17:30.958Z,18.10
2018-02-23T05:18:30.552Z,18.40
2018-02-23T05:19:30.435Z,17.60
2018-02-23T05:20:30.343Z,17.70
2018-02-23T05:21:30.224Z,18.80
2018-02-23T05:22:30.114Z,19.10
2018-02-23T05:23:30.005Z,17.10
2018-02-23T05:24:29.893Z,17.70
2018-02-23T05:25:29.786Z,18.70
2018-02-23T05:26:29.665Z,18.50
2018-02-23T05:27:29.562Z,18.20
2018-02-23T05:28:29.454Z,19.60
2018-02-23T05:29:29.341Z,19.00
2018-02-23T05:30:29.237Z,20.10
2018-02-23T05:31:29.113Z,19.20
2018-02-23T05:32:29.005Z,19.00
2018-02-23T05:33:28.902Z,18.70
2018-02-23T05:34:28.788Z,18.20
2018-02-23T05:35:28.673Z,19.20
2018-02-23T05:36:28.577Z,18.70
2018-02-23T05:37:28.454Z,20.10
2018-02-23T05:38:28.359Z,19.60
2018-02-23T05:39:28.244Z,18.40
2018-02-23T05:40:28.124Z,19.80
2018-02-23T05:41:28.023Z,18.90
2018-02-23T05:42:27.906Z,18.60
2018-02-23T05:43:27.795Z,20.80
2018-02-23T05:44:27.682Z,20.00
2018-02-23T05:45:27.590Z,19.20
2018-02-23T05:46:27.470Z,20.80
2018-02-23T05:47:27.363Z,18.50
2018-02-23T05:48:27.247Z,21.00
2018-02-23T05:49:27.139Z,17.40
2018-02-23T05:50:27.031Z,22.10
2018-02-23T05:51:26.911Z,22.00
2018-02-23T05:52:27.113Z,21.60
2018-02-23T05:53:26.688Z,20.70
2018-02-23T05:54:26.581Z,21.70
2018-02-23T05:55:26.480Z,21.60
2018-02-23T05:56:26.353Z,21.30
2018-02-23T05:57:26.252Z,22.80
2018-02-23T05:58:26.154Z,22.60
2018-02-23T05:59:26.028Z,21.50
2018-02-23T06:00:25.925Z,23.40
2018-02-23T06:01:25.806Z,23.30
2018-02-23T06:02:25.703Z,22.70
2018-02-23T06:03:25.585Z,20.60
2018-02-23T06:04:25.482Z,22.20
2018-02-23T06:05:25.386Z,23.20
2018-02-23T06:06:25.244Z,22.90
2018-02-23T06:07:25.145Z,20.20
2018-02-23T06:08:25.039Z,23.40
2018-02-23T06:09:24.921Z,21.90
2018-02-23T06:10:24.808Z,23.50
2018-02-23T06:11:24.705Z,22.20
2018-02-23T06:12:24.584Z,23.70
2018-02-23T06:13:24.482Z,21.60
2018-02-23T06:14:24.371Z,22.20
2018-02-23T06:15:24.260Z,22.60
2018-02-23T06:16:24.153Z,23.40
2018-02-23T06:17:24.037Z,22.80
2018-02-23T06:18:23.920Z,20.50
2018-02-23T06:19:23.822Z,23.60
2018-02-23T06:20:23.704Z,21.00
2018-02-23T06:21:23.605Z,23.10
2018-02-23T06:22:23.480Z,23.70
2018-02-23T06:23:23.382Z,24.50
2018-02-23T06:24:23.271Z,23.30
2018-02-23T06:25:23.148Z,24.40
2018-02-23T06:26:23.044Z,23.90
2018-02-23T06:27:22.929Z,22.50
2018-02-23T06:28:22.828Z,24.90
2018-02-23T06:29:22.717Z,23.20
2018-02-23T06:30:22.596Z,23.30
2018-02-23T06:31:22.494Z,21.10
2018-02-23T06:32:22.374Z,24.20
2018-02-23T06:33:22.272Z,23.30
2018-02-23T06:34:22.157Z,21.80
2018-02-23T06:35:22.040Z,23.60
2018-02-23T06:36:21.933Z,22.60
2018-02-23T06:37:22.068Z,22.60
2018-02-23T06:38:21.712Z,23.30
2018-02-23T06:39:21.594Z,23.80
2018-02-23T06:40:21.495Z,22.80
2018-02-23T06:41:21.384Z,22.60
2018-02-23T06:42:21.271Z,23.40
2018-02-23T06:43:21.173Z,23.00
2018-02-23T06:44:21.042Z,23.00
2018-02-23T06:45:20.945Z,21.80
2018-02-23T06:46:20.836Z,23.40
2018-02-23T06:47:20.724Z,19.10
2018-02-23T06:48:20.617Z,23.60
2018-02-23T06:49:20.488Z,23.40
2018-02-23T06:50:20.387Z,23.40
2018-02-23T06:51:20.281Z,23.30
2018-02-23T06:52:20.166Z,24.40
2018-02-23T06:53:20.059Z,22.10
2018-02-23T06:54:19.936Z,22.10
2018-02-23T06:55:19.832Z,22.90
2018-02-23T06:56:19.720Z,22.90
2018-02-23T06:57:19.619Z,22.90
2018-02-23T06:58:19.502Z,23.60
2018-02-23T06:59:19.392Z,23.70
2018-02-23T07:00:19.296Z,23.50
2018-02-23T07:01:19.173Z,24.90
2018-02-23T07:02:19.070Z,23.70
2018-02-23T07:03:18.949Z,24.20
2018-02-23T07:04:18.838Z,17.90
2018-02-23T07:05:18.726Z,22.90
2018-02-23T07:06:18.618Z,23.30
2018-02-23T07:07:18.502Z,23.80
2018-02-23T07:08:18.409Z,22.00
2018-02-23T07:09:18.292Z,24.70
2018-02-23T07:10:18.176Z,21.30
2018-02-23T07:11:18.069Z,24.30
2018-02-23T07:12:17.956Z,23.90
2018-02-23T07:13:17.852Z,25.60
2018-02-23T07:14:17.733Z,24.00
2018-02-23T07:15:17.627Z,25.90
2018-02-23T07:16:17.523Z,26.30
2018-02-23T07:17:17.415Z,23.30
2018-02-23T07:18:17.301Z,24.30
2018-02-23T07:19:17.192Z,21.40
2018-02-23T07:20:17.071Z,13.70
2018-02-23T07:21:16.964Z,22.30
2018-02-23T07:22:17.114Z,17.80
2018-02-23T07:23:16.739Z,23.50
2018-02-23T07:24:16.646Z,23.00
2018-02-23T07:25:16.517Z,23.00
2018-02-23T07:26:16.443Z,22.20
2018-02-23T07:27:16.304Z,22.60
2018-02-23T07:28:16.184Z,23.30
2018-02-23T07:29:16.084Z,22.50
2018-02-23T07:30:15.965Z,23.80
2018-02-23T07:31:15.860Z,23.90
2018-02-23T07:32:15.758Z,23.90
2018-02-23T07:33:15.643Z,24.70
2018-02-23T07:34:15.537Z,22.70
2018-02-23T07:35:15.435Z,21.80
2018-02-23T07:36:15.313Z,22.80
2018-02-23T07:37:15.201Z,21.00
2018-02-23T07:38:15.086Z,22.90
2018-02-23T07:39:14.971Z,22.70
2018-02-23T07:40:14.872Z,23.90
2018-02-23T07:41:14.754Z,21.10
2018-02-23T07:42:14.655Z,24.70
2018-02-23T07:43:14.538Z,21.90
2018-02-23T07:44:14.425Z,24.80
2018-02-23T07:45:14.323Z,23.70
2018-02-23T07:46:14.201Z,24.40
2018-02-23T07:47:14.104Z,22.10
2018-02-23T07:48:13.986Z,23.30
2018-02-23T07:49:13.882Z,24.20
2018-02-23T07:50:13.776Z,24.40
2018-02-23T07:51:13.660Z,20.50
2018-02-23T07:52:13.551Z,22.80
2018-02-23T07:53:13.438Z,22.40
2018-02-23T07:54:13.323Z,25.20
2018-02-23T07:55:13.208Z,23.80
2018-02-23T07:56:13.109Z,25.20
2018-02-23T07:57:12.993Z,23.60
2018-02-23T07:58:12.887Z,23.30
2018-02-23T07:59:12.772Z,25.70
2018-02-23T08:00:12.662Z,17.70
2018-02-23T08:01:12.555Z,22.90
2018-02-23T08:02:12.439Z,21.30
2018-02-23T08:03:12.331Z,24.30
2018-02-23T08:04:12.219Z,22.20
2018-02-23T08:05:12.119Z,25.50
2018-02-23T08:06:11.999Z,24.30
2018-02-23T08:07:11.896Z,23.40
2018-02-23T08:08:11.785Z,23.30
2018-02-23T08:09:11.677Z,16.70
2018-02-23T08:10:11.562Z,22.40
2018-02-23T08:11:11.444Z,23.10
2018-02-23T08:12:11.342Z,24.20
2018-02-23T08:13:11.221Z,23.20
2018-02-23T08:14:11.122Z,20.00
2018-02-23T08:15:11.005Z,22.90
2018-02-23T08:16:10.898Z,22.60
2018-02-23T08:17:10.794Z,24.70
2018-02-23T08:18:10.689Z,23.60
2018-02-23T08:19:10.564Z,25.50
2018-02-23T08:20:10.464Z,24.90
2018-02-23T08:21:10.347Z,21.40
2018-02-23T08:22:10.240Z,24.90
2018-02-23T08:23:10.139Z,24.20
2018-02-23T08:24:10.012Z,23.60
2018-02-23T08:25:09.910Z,22.70
2018-02-23T08:26:09.792Z,24.60
2018-02-23T08:27:09.691Z,24.90
2018-02-23T08:28:09.584Z,24.20
2018-02-23T08:29:09.470Z,26.10
2018-02-23T08:30:09.358Z,25.00
2018-02-23T08:31:09.260Z,24.60
2018-02-23T08:32:09.139Z,22.30
2018-02-23T08:33:09.036Z,25.30
2018-02-23T08:34:08.922Z,20.00
2018-02-23T08:35:08.811Z,26.40
2018-02-23T08:36:08.707Z,25.60
2018-02-23T08:37:08.591Z,25.10
2018-02-23T08:38:08.479Z,24.80
2018-02-23T08:39:08.375Z,21.20
2018-02-23T08:40:08.263Z,23.90
2018-02-23T08:41:08.152Z,23.20
2018-02-23T08:42:08.046Z,25.90
2018-02-23T08:43:07.928Z,22.60
2018-02-23T08:44:07.824Z,24.70
2018-02-23T08:45:07.703Z,26.60
2018-02-23T08:46:07.656Z,26.90
2018-02-23T08:47:07.488Z,24.70
2018-02-23T08:48:07.392Z,26.90
2018-02-23T08:49:07.277Z,26.30
2018-02-23T08:50:07.159Z,27.00
2018-02-23T08:51:07.045Z,26.70
2018-02-23T08:52:06.952Z,24.60
2018-02-23T08:53:06.828Z,19.50
2018-02-23T08:54:06.728Z,22.50
2018-02-23T08:55:06.617Z,27.80
2018-02-23T08:56:06.506Z,26.60
2018-02-23T08:57:06.392Z,27.00
2018-02-23T08:58:06.294Z,27.50
2018-02-23T08:59:06.178Z,20.10
2018-02-23T09:00:06.072Z,23.50
2018-02-23T09:01:05.955Z,26.00
2018-02-23T09:02:05.853Z,27.60
2018-02-23T09:03:05.742Z,27.00
2018-02-23T09:04:05.635Z,28.10
2018-02-23T09:05:05.525Z,28.30
2018-02-23T09:06:05.420Z,28.20
2018-02-23T09:07:05.297Z,26.50
2018-02-23T09:08:05.191Z,23.50
2018-02-23T09:09:05.086Z,22.10
2018-02-23T09:10:04.982Z,26.80
2018-02-23T09:11:04.853Z,25.50
2018-02-23T09:12:04.761Z,26.80
2018-02-23T09:13:04.635Z,25.70
2018-02-23T09:14:04.536Z,25.30
2018-02-23T09:15:04.421Z,26.40
2018-02-23T09:16:04.313Z,25.60
2018-02-23T09:17:04.208Z,23.80
2018-02-23T09:18:04.111Z,26.20
2018-02-23T09:19:03.977Z,26.40
2018-02-23T09:20:03.884Z,22.90
2018-02-23T09:21:03.760Z,23.90
2018-02-23T09:22:03.665Z,24.90
2018-02-23T09:23:03.543Z,24.60
2018-02-23T09:24:03.434Z,23.20
2018-02-23T09:25:03.326Z,23.80
2018-02-23T09:26:03.224Z,23.00
2018-02-23T09:27:03.108Z,22.40
2018-02-23T09:28:03.003Z,23.30
2018-02-23T09:29:02.880Z,25.50
2018-02-23T09:30:02.848Z,22.90
2018-02-23T09:31:02.665Z,25.90
2018-02-23T09:32:02.559Z,24.90
2018-02-23T09:33:02.454Z,24.50
2018-02-23T09:34:02.341Z,24.60
2018-02-23T09:35:02.227Z,24.40
2018-02-23T09:36:02.127Z,21.90
2018-02-23T09:37:02.025Z,21.20
2018-02-23T09:38:01.908Z,21.80
2018-02-23T09:39:01.810Z,22.80
2018-02-23T09:40:01.686Z,22.80
2018-02-23T09:41:01.592Z,24.30
2018-02-23T09:42:01.464Z,23.40
2018-02-23T09:43:01.367Z,22.20
2018-02-23T09:44:01.248Z,22.00
2018-02-23T09:45:01.152Z,19.60
2018-02-23T09:46:01.036Z,19.90
2018-02-23T09:47:00.933Z,18.90
2018-02-23T09:48:00.819Z,20.40
2018-02-23T09:49:00.706Z,20.70
2018-02-23T09:50:00.595Z,20.60
2018-02-23T09:51:00.483Z,17.80
2018-02-23T09:52:00.373Z,16.80
2018-02-23T09:53:00.271Z,19.50
2018-02-23T09:54:00.154Z,20.00
2018-02-23T09:55:00.057Z,20.60
2018-02-23T09:55:59.940Z,20.10
2018-02-23T09:56:59.832Z,18.40
2018-02-23T09:57:59.729Z,21.50
2018-02-23T09:58:59.616Z,19.60
2018-02-23T09:59:59.514Z,20.10
2018-02-23T10:00:59.387Z,19.40
2018-02-23T10:01:59.296Z,20.60
2018-02-23T10:02:59.173Z,20.00
2018-02-23T10:03:59.073Z,21.50
2018-02-23T10:04:58.977Z,21.80
2018-02-23T10:05:58.852Z,18.50
2018-02-23T10:06:58.733Z,21.10
2018-02-23T10:07:58.631Z,18.10
2018-02-23T10:08:58.530Z,12.90
2018-02-23T10:09:58.412Z,18.40
2018-02-23T10:10:58.309Z,18.20
2018-02-23T10:11:58.188Z,16.90
2018-02-23T10:12:58.099Z,16.30
2018-02-23T10:13:57.973Z,17.10
2018-02-23T10:14:57.874Z,17.40
2018-02-23T10:15:57.756Z,17.00
2018-02-23T10:16:57.646Z,16.40
2018-02-23T10:17:57.534Z,18.30
2018-02-23T10:18:57.432Z,17.20
2018-02-23T10:19:57.324Z,17.60
2018-02-23T10:20:57.237Z,18.00
2018-02-23T10:21:57.096Z,18.20
2018-02-23T10:22:56.991Z,17.50
2018-02-23T10:23:56.892Z,17.80
2018-02-23T10:24:56.774Z,14.40
2018-02-23T10:25:56.673Z,14.90
2018-02-23T10:26:56.564Z,15.40
2018-02-23T10:27:56.453Z,15.70
2018-02-23T10:28:56.337Z,15.80
2018-02-23T10:29:56.227Z,16.30
2018-02-23T10:30:56.113Z,17.20
2018-02-23T10:31:56.015Z,13.90
2018-02-23T10:32:55.903Z,10.90
2018-02-23T10:33:55.797Z,16.30
2018-02-23T10:34:55.689Z,17.70
2018-02-23T10:35:55.573Z,18.00
2018-02-23T10:36:55.478Z,17.20
2018-02-23T10:37:55.352Z,18.90
2018-02-23T10:38:55.254Z,15.60
2018-02-23T10:39:55.136Z,17.80
2018-02-23T10:40:55.039Z,18.00
2018-02-23T10:41:54.918Z,18.00
2018-02-23T10:42:54.823Z,17.40
2018-02-23T10:43:54.702Z,17.40
2018-02-23T10:44:54.597Z,17.70
2018-02-23T10:45:54.480Z,17.80
2018-02-23T10:46:54.378Z,17.00
2018-02-23T10:47:54.287Z,17.00
2018-02-23T10:48:54.153Z,17.80
2018-02-23T10:49:54.054Z,13.60
2018-02-23T10:50:53.968Z,15.10
2018-02-23T10:51:53.829Z,16.30
2018-02-23T10:52:53.725Z,16.00
2018-02-23T10:53:53.612Z,16.00
2018-02-23T10:54:53.501Z,17.20
2018-02-23T10:55:53.397Z,17.20
2018-02-23T10:56:53.290Z,17.60
2018-02-23T10:57:53.180Z,17.70
2018-02-23T10:58:53.076Z,17.50
2018-02-23T10:59:52.974Z,18.60
2018-02-23T11:00:52.855Z,16.00
2018-02-23T11:01:52.735Z,13.20
2018-02-23T11:02:52.632Z,16.80
2018-02-23T11:03:52.520Z,16.20
2018-02-23T11:04:52.414Z,15.50
2018-02-23T11:05:52.320Z,16.10
2018-02-23T11:06:52.203Z,16.20
2018-02-23T11:07:52.091Z,15.80
2018-02-23T11:08:51.977Z,16.30
2018-02-23T11:09:51.871Z,15.50
2018-02-23T11:10:51.756Z,14.00
2018-02-23T11:11:51.663Z,12.80
2018-02-23T11:12:51.560Z,12.50
2018-02-23T11:13:51.441Z,12.20
2018-02-23T11:14:51.335Z,13.80
2018-02-23T11:15:51.217Z,14.30
2018-02-23T11:16:51.117Z,14.40
2018-02-23T11:17:51.017Z,15.00
2018-02-23T11:18:50.908Z,15.30
2018-02-23T11:19:50.793Z,10.50
2018-02-23T11:20:50.685Z,10.80
2018-02-23T11:21:50.569Z,13.50
2018-02-23T11:22:50.455Z,13.40
2018-02-23T11:23:50.361Z,11.60
2018-02-23T11:24:50.235Z,13.40
2018-02-23T11:25:50.135Z,13.00
2018-02-23T11:26:50.025Z,13.20
2018-02-23T11:27:49.914Z,13.40
2018-02-23T11:28:49.822Z,13.20
2018-02-23T11:29:49.702Z,13.40
2018-02-23T11:30:49.599Z,12.90
2018-02-23T11:31:49.478Z,13.60
2018-02-23T11:32:49.369Z,13.80
2018-02-23T11:33:49.270Z,13.80
2018-02-23T11:34:49.155Z,14.90
2018-02-23T11:35:49.048Z,13.80
2018-02-23T11:36:48.937Z,13.00
2018-02-23T11:37:48.835Z,15.40
2018-02-23T11:38:48.721Z,11.60
2018-02-23T11:39:48.614Z,14.40
2018-02-23T11:40:48.500Z,14.70
2018-02-23T11:41:48.404Z,15.30
2018-02-23T11:42:48.290Z,13.50
2018-02-23T11:43:48.179Z,14.90
2018-02-23T11:44:48.072Z,14.60
2018-02-23T11:45:47.953Z,14.40
2018-02-23T11:46:47.869Z,13.70
2018-02-23T11:47:47.749Z,13.70
2018-02-23T11:48:47.631Z,13.30
2018-02-23T11:49:47.533Z,16.20
2018-02-23T11:50:47.419Z,16.50
2018-02-23T11:51:47.313Z,16.00
2018-02-23T11:52:47.195Z,14.40
2018-02-23T11:53:47.094Z,15.10
2018-02-23T11:54:46.972Z,13.30
2018-02-23T11:55:46.878Z,13.90
2018-02-23T11:56:46.770Z,14.90
2018-02-23T11:57:46.662Z,15.90
2018-02-23T11:58:46.552Z,16.10
2018-02-23T11:59:46.434Z,14.00
2018-02-23T12:00:46.336Z,13.40
2018-02-23T12:01:46.224Z,12.30
2018-02-23T12:02:46.113Z,14.60
2018-02-23T12:03:46.010Z,12.90
2018-02-23T12:04:45.889Z,14.10
2018-02-23T12:05:45.801Z,15.00
2018-02-23T12:06:45.685Z,15.40
2018-02-23T12:07:45.572Z,11.80
2018-02-23T12:08:45.474Z,13.50
2018-02-23T12:09:45.356Z,13.80
2018-02-23T12:10:45.263Z,14.00
2018-02-23T12:11:45.145Z,12.30
2018-02-23T12:12:45.026Z,14.60
2018-02-23T12:13:44.935Z,14.20
2018-02-23T12:14:44.819Z,14.30
2018-02-23T12:15:44.705Z,13.80
2018-02-23T12:16:44.604Z,14.10
2018-02-23T12:17:44.486Z,13.20
2018-02-23T12:18:44.382Z,14.90
2018-02-23T12:19:44.293Z,14.50
2018-02-23T12:20:44.158Z,13.80
2018-02-23T12:21:44.059Z,10.90
2018-02-23T12:22:43.954Z,13.40
2018-02-23T12:23:43.839Z,13.20
2018-02-23T12:24:43.742Z,12.70
2018-02-23T12:25:43.621Z,13.40
2018-02-23T12:26:43.521Z,14.80
2018-02-23T12:27:43.406Z,14.20
2018-02-23T12:28:43.304Z,13.40
2018-02-23T12:29:43.204Z,13.80
2018-02-23T12:30:43.080Z,14.80
2018-02-23T12:31:42.974Z,9.20
2018-02-23T12:32:42.887Z,14.10
2018-02-23T12:33:42.761Z,15.60
2018-02-23T12:34:42.662Z,14.00
2018-02-23T12:35:42.539Z,15.10
2018-02-23T12:36:42.439Z,15.30
2018-02-23T12:37:42.334Z,13.50
2018-02-23T12:38:42.218Z,13.60
2018-02-23T12:39:42.113Z,14.70
2018-02-23T12:40:42.000Z,13.80
2018-02-23T12:41:41.896Z,14.10
2018-02-23T12:42:41.787Z,13.10
2018-02-23T12:43:41.674Z,11.10
2018-02-23T12:44:41.570Z,14.40
2018-02-23T12:45:41.459Z,14.90
2018-02-23T12:46:41.359Z,15.80
2018-02-23T12:47:41.257Z,15.30
2018-02-23T12:48:41.135Z,15.30
2018-02-23T12:49:41.032Z,11.70
2018-02-23T12:50:40.932Z,14.40
2018-02-23T12:51:40.812Z,13.90
2018-02-23T12:52:40.710Z,13.20